createdAt,value
2017-03-26T04:00:34.373Z,1.07
2017-03-26T04:01:34.905Z,0.96
2017-03-26T04:02:35.409Z,0.96
2017-03-26T04:03:35.456Z,1
2017-03-26T04:04:35.478Z,0.99
2017-03-26T04:05:35.470Z,1
2017-03-26T04:06:36.015Z,0.92
2017-03-26T04:07:36.088Z,0.94
2017-03-26T04:08:36.104Z,0.86
2017-03-26T04:09:36.138Z,0.84
2017-03-26T04:10:36.100Z,0.89
2017-03-26T04:11:36.625Z,0.92
2017-03-26T04:12:36.624Z,0.86
2017-03-26T04:13:36.659Z,0.94
2017-03-26T04:14:36.707Z,0.94
2017-03-26T04:15:36.736Z,0.94
2017-03-26T04:16:36.754Z,0.89
2017-03-26T04:17:36.783Z,0.85
2017-03-26T04:18:36.810Z,0.78
2017-03-26T04:19:36.836Z,0.75
2017-03-26T04:20:36.821Z,0.79
2017-03-26T04:21:36.844Z,0.72
2017-03-26T04:22:37.392Z,0.72
2017-03-26T04:23:37.381Z,0.67
2017-03-26T04:24:37.886Z,0.82
2017-03-26T04:25:37.912Z,0.75
2017-03-26T04:26:38.446Z,0.76
2017-03-26T04:27:38.504Z,0.69
2017-03-26T04:28:38.498Z,0.72
2017-03-26T04:29:39.051Z,0.74
2017-03-26T04:30:39.037Z,0.61
2017-03-26T04:31:39.052Z,0.66
2017-03-26T04:32:39.618Z,0.67
2017-03-26T04:33:39.651Z,0.86
2017-03-26T04:34:40.171Z,0.76
2017-03-26T04:35:40.174Z,0.78
2017-03-26T04:36:40.659Z,0.78
2017-03-26T04:37:40.707Z,0.82
2017-03-26T04:38:40.710Z,0.85
2017-03-26T04:39:40.769Z,0.75
2017-03-26T04:40:40.749Z,0.76
2017-03-26T04:41:41.274Z,0.75
2017-03-26T04:42:41.277Z,0.66
2017-03-26T04:43:41.315Z,0.64
2017-03-26T04:44:41.369Z,0.64
2017-03-26T04:45:41.356Z,0.64
2017-03-26T04:46:41.396Z,0.67
2017-03-26T04:47:41.418Z,0.72
2017-03-26T04:48:42.027Z,0.79
2017-03-26T04:49:42.015Z,0.76
2017-03-26T04:50:42.016Z,0.78
2017-03-26T04:51:42.554Z,0.76
2017-03-26T04:52:42.566Z,0.76
2017-03-26T04:53:43.066Z,0.76
2017-03-26T04:54:43.124Z,0.72
2017-03-26T04:55:43.129Z,0.72
2017-03-26T04:56:43.682Z,0.69
2017-03-26T04:57:43.694Z,0.64
2017-03-26T04:58:44.238Z,0.74
2017-03-26T04:59:44.254Z,0.75
2017-03-26T05:00:44.269Z,0.72
2017-03-26T05:01:44.280Z,0.69
2017-03-26T05:02:44.298Z,0.64
2017-03-26T05:03:44.800Z,0.76
2017-03-26T05:04:45.367Z,0.82
2017-03-26T05:05:45.379Z,0.81
2017-03-26T05:06:45.374Z,0.85
2017-03-26T05:07:45.461Z,0.81
2017-03-26T05:08:45.454Z,0.82
2017-03-26T05:09:45.480Z,0.81
2017-03-26T05:10:45.486Z,0.84
2017-03-26T05:11:46.030Z,0.84
2017-03-26T05:12:46.044Z,0.92
2017-03-26T05:13:46.070Z,0.86
2017-03-26T05:14:46.063Z,0.97
2017-03-26T05:15:46.608Z,0.97
2017-03-26T05:16:46.597Z,0.93
2017-03-26T05:17:46.622Z,0.9
2017-03-26T05:18:46.680Z,1.07
2017-03-26T05:19:46.658Z,1
2017-03-26T05:20:46.694Z,1.02
2017-03-26T05:21:46.780Z,1.07
2017-03-26T05:22:46.771Z,1.11
2017-03-26T05:23:46.768Z,1.11
2017-03-26T05:24:47.286Z,1.03
2017-03-26T05:25:47.324Z,1.1
2017-03-26T05:26:47.887Z,0.97
2017-03-26T05:27:48.396Z,1.1
2017-03-26T05:28:48.937Z,1.11
2017-03-26T05:29:48.920Z,1.1
2017-03-26T05:30:49.434Z,1.2
2017-03-26T05:31:49.430Z,1.2
2017-03-26T05:32:49.966Z,1.17
2017-03-26T05:33:49.977Z,1.12
2017-03-26T05:34:50.489Z,1.2
2017-03-26T05:35:50.546Z,1.15
2017-03-26T05:36:50.541Z,1.17
2017-03-26T05:37:50.563Z,1.22
2017-03-26T05:38:50.621Z,1.2
2017-03-26T05:39:50.641Z,1.28
2017-03-26T05:40:50.740Z,1.24
2017-03-26T05:41:50.694Z,1.35
2017-03-26T05:42:50.694Z,1.32
2017-03-26T05:43:51.276Z,1.46
2017-03-26T05:44:51.278Z,1.5
2017-03-26T05:45:51.305Z,1.5
2017-03-26T05:46:51.853Z,1.48
2017-03-26T05:47:51.851Z,1.6
2017-03-26T05:48:52.364Z,1.69
2017-03-26T05:49:52.378Z,1.72
2017-03-26T05:50:52.411Z,1.72
2017-03-26T05:51:52.436Z,1.75
2017-03-26T05:52:52.979Z,1.86
2017-03-26T05:53:52.977Z,1.98
2017-03-26T05:54:54.037Z,1.87
2017-03-26T05:55:54.041Z,1.89
2017-03-26T05:56:54.072Z,1.92
2017-03-26T05:57:54.090Z,2.06
2017-03-26T05:58:54.110Z,2.12
2017-03-26T05:59:54.285Z,2.08
2017-03-26T06:00:54.199Z,2.16
2017-03-26T06:01:54.204Z,2.24
2017-03-26T06:02:54.240Z,2.29
2017-03-26T06:03:54.303Z,2.29
2017-03-26T06:04:54.271Z,2.42
2017-03-26T06:05:54.302Z,2.48
2017-03-26T06:06:54.321Z,2.55
2017-03-26T06:07:54.405Z,2.72
2017-03-26T06:08:54.404Z,2.87
2017-03-26T06:09:54.395Z,2.88
2017-03-26T06:10:54.410Z,2.93
2017-03-26T06:11:54.500Z,2.96
2017-03-26T06:12:54.494Z,3.13
2017-03-26T06:13:54.481Z,3.21
2017-03-26T06:14:54.512Z,3.3
2017-03-26T06:15:54.541Z,3.37
2017-03-26T06:16:54.627Z,3.43
2017-03-26T06:17:54.603Z,3.49
2017-03-26T06:18:54.635Z,3.64
2017-03-26T06:19:54.682Z,3.75
2017-03-26T06:20:54.704Z,3.81
2017-03-26T06:21:54.756Z,3.86
2017-03-26T06:22:54.737Z,4
2017-03-26T06:23:54.833Z,4.14
2017-03-26T06:24:54.811Z,4.18
2017-03-26T06:25:54.846Z,4.22
2017-03-26T06:26:54.885Z,4.33
2017-03-26T06:27:54.861Z,4.38
2017-03-26T06:28:54.942Z,4.56
2017-03-26T06:29:54.946Z,4.68
2017-03-26T06:30:54.943Z,4.76
2017-03-26T06:31:54.973Z,4.9
2017-03-26T06:32:55.072Z,5.02
2017-03-26T06:33:55.015Z,5.26
2017-03-26T06:34:55.087Z,5.63
2017-03-26T06:35:55.073Z,6.17
2017-03-26T06:36:55.141Z,7.22
2017-03-26T06:37:55.180Z,8.22
2017-03-26T06:38:55.205Z,9.19
2017-03-26T06:39:55.182Z,10.14
2017-03-26T06:40:55.218Z,10.76
2017-03-26T06:41:55.280Z,11.26
2017-03-26T06:42:55.277Z,11.97
2017-03-26T06:43:55.364Z,12.58
2017-03-26T06:44:55.336Z,13.02
2017-03-26T06:45:55.376Z,13.36
2017-03-26T06:46:55.396Z,13.68
2017-03-26T06:47:55.472Z,13.81
2017-03-26T06:48:55.498Z,14.01
2017-03-26T06:49:55.478Z,14.23
2017-03-26T06:50:55.508Z,14.71
2017-03-26T06:51:55.591Z,15.12
2017-03-26T06:52:55.625Z,15.59
2017-03-26T06:53:55.596Z,15.83
2017-03-26T06:54:55.681Z,16.14
2017-03-26T06:55:55.706Z,16.39
2017-03-26T06:56:55.746Z,16.47
2017-03-26T06:57:55.740Z,16.33
2017-03-26T06:58:55.731Z,16.62
2017-03-26T06:59:55.770Z,16.87
2017-03-26T07:00:55.837Z,17.07
2017-03-26T07:01:55.840Z,17.36
2017-03-26T07:02:55.958Z,17.71
2017-03-26T07:03:55.906Z,18.1
2017-03-26T07:04:55.938Z,18.53
2017-03-26T07:05:55.985Z,18.71
2017-03-26T07:06:56.001Z,19
2017-03-26T07:07:56.025Z,19.13
2017-03-26T07:08:56.118Z,19.31
2017-03-26T07:09:56.133Z,19.5
2017-03-26T07:10:56.157Z,19.65
2017-03-26T07:11:56.202Z,19.7
2017-03-26T07:12:56.229Z,19.79
2017-03-26T07:13:56.249Z,19.85
2017-03-26T07:14:56.285Z,19.7
2017-03-26T07:15:56.344Z,19.79
2017-03-26T07:16:56.394Z,19.75
2017-03-26T07:17:56.380Z,20
2017-03-26T07:18:56.374Z,20.08
2017-03-26T07:19:56.415Z,20.11
2017-03-26T07:20:56.489Z,19.74
2017-03-26T07:21:56.522Z,19.5
2017-03-26T07:22:56.575Z,19.45
2017-03-26T07:23:56.567Z,19.55
2017-03-26T07:24:56.615Z,19.74
2017-03-26T07:25:56.679Z,19.87
2017-03-26T07:26:56.683Z,20
2017-03-26T07:27:56.692Z,19.97
2017-03-26T07:28:56.765Z,19.82
2017-03-26T07:29:56.804Z,19.13
2017-03-26T07:30:56.833Z,18.69
2017-03-26T07:31:56.894Z,18.68
2017-03-26T07:32:56.876Z,18.5
2017-03-26T07:33:56.896Z,18.57
2017-03-26T07:34:56.939Z,18.65
2017-03-26T07:35:56.993Z,19.06
2017-03-26T07:36:56.994Z,19.31
2017-03-26T07:37:57.073Z,19.53
2017-03-26T07:38:57.139Z,19.64
2017-03-26T07:39:57.140Z,19.7
2017-03-26T07:40:57.157Z,19.68
2017-03-26T07:41:57.207Z,20.05
2017-03-26T07:42:57.275Z,20.6
2017-03-26T07:43:57.290Z,20.94
2017-03-26T07:44:57.286Z,21.03
2017-03-26T07:45:57.325Z,20.56
2017-03-26T07:46:57.388Z,20.64
2017-03-26T07:47:57.386Z,20.91
2017-03-26T07:48:57.470Z,20.76
2017-03-26T07:49:57.500Z,20.44
2017-03-26T07:50:57.489Z,20.27
2017-03-26T07:51:57.597Z,20.44
2017-03-26T07:52:57.664Z,20.71
2017-03-26T07:53:57.669Z,21.09
2017-03-26T07:54:57.642Z,21.43
2017-03-26T07:55:57.704Z,21.67
2017-03-26T07:56:57.759Z,22.14
2017-03-26T07:57:57.804Z,22.59
2017-03-26T07:58:57.783Z,23.12
2017-03-26T07:59:57.824Z,23.38
2017-03-26T08:00:57.882Z,23.72
2017-03-26T08:01:57.902Z,23.79
2017-03-26T08:02:57.943Z,24.17
2017-03-26T08:03:58.079Z,24.33
2017-03-26T08:04:58.030Z,24.52
2017-03-26T08:05:58.108Z,25.04
2017-03-26T08:06:58.151Z,25.47
2017-03-26T08:07:58.133Z,25.88
2017-03-26T08:08:58.205Z,26.12
2017-03-26T08:09:58.257Z,26.52
2017-03-26T08:10:58.717Z,26.9
2017-03-26T08:11:58.300Z,27.09
2017-03-26T08:12:58.324Z,27.28
2017-03-26T08:13:58.394Z,27.04
2017-03-26T08:14:58.392Z,26.91
2017-03-26T08:15:58.462Z,26.89
2017-03-26T08:16:58.505Z,27.11
2017-03-26T08:17:58.524Z,27.36
2017-03-26T08:18:58.568Z,27.41
2017-03-26T08:19:58.604Z,27.37
2017-03-26T08:20:58.668Z,27.59
2017-03-26T08:21:58.769Z,27.87
2017-03-26T08:22:58.751Z,28.08
2017-03-26T08:23:58.779Z,27.98
2017-03-26T08:24:58.794Z,27.96
2017-03-26T08:25:58.913Z,28.21
2017-03-26T08:26:58.885Z,28.57
2017-03-26T08:27:58.933Z,28.67
2017-03-26T08:28:59.022Z,28.92
2017-03-26T08:29:59.003Z,29.14
2017-03-26T08:30:59.042Z,29.06
2017-03-26T08:31:59.112Z,29.2
2017-03-26T08:32:59.143Z,29.3
2017-03-26T08:33:59.181Z,29.5
2017-03-26T08:34:59.251Z,29.54
2017-03-26T08:35:59.278Z,29.76
2017-03-26T08:36:59.321Z,30.04
2017-03-26T08:37:59.370Z,30.31
2017-03-26T08:38:59.399Z,30.18
2017-03-26T08:39:59.416Z,30.14
2017-03-26T08:40:59.478Z,30.06
2017-03-26T08:41:59.504Z,30.22
2017-03-26T08:42:59.539Z,30.34
2017-03-26T08:43:59.621Z,30.45
2017-03-26T08:44:59.687Z,30.09
2017-03-26T08:45:59.686Z,29.75
2017-03-26T08:46:59.717Z,29.65
2017-03-26T08:47:59.759Z,29.82
2017-03-26T08:48:59.848Z,30.09
2017-03-26T08:49:59.854Z,30.35
2017-03-26T08:50:59.918Z,30.34
2017-03-26T08:51:59.973Z,30.24
2017-03-26T08:52:59.977Z,30.02
2017-03-26T08:54:00.033Z,29.92
2017-03-26T08:55:00.095Z,29.88
2017-03-26T08:56:00.138Z,29.89
2017-03-26T08:57:00.142Z,29.85
2017-03-26T08:58:00.229Z,29.98
2017-03-26T08:59:00.240Z,30.02
2017-03-26T09:00:00.327Z,30.31
2017-03-26T09:01:00.308Z,30.62
2017-03-26T09:02:00.395Z,30.84
2017-03-26T09:03:00.429Z,31.12
2017-03-26T09:04:00.511Z,31.47
2017-03-26T09:05:00.504Z,31.23
2017-03-26T09:06:00.550Z,30.78
2017-03-26T09:07:00.635Z,30.39
2017-03-26T09:08:00.641Z,30.31
2017-03-26T09:09:00.753Z,30.26
2017-03-26T09:10:00.754Z,30
2017-03-26T09:11:00.762Z,30.25
2017-03-26T09:12:00.843Z,30.16
2017-03-26T09:13:00.870Z,30.39
2017-03-26T09:14:00.888Z,30.77
2017-03-26T09:15:00.929Z,30.75
2017-03-26T09:16:00.966Z,30.67
2017-03-26T09:17:01.030Z,30.59
2017-03-26T09:18:01.066Z,30.54
2017-03-26T09:19:01.148Z,30.66
2017-03-26T09:20:01.197Z,31.1
2017-03-26T09:21:01.218Z,31.45
2017-03-26T09:22:01.245Z,31.65
2017-03-26T09:23:01.331Z,31.77
2017-03-26T09:24:01.342Z,31.82
2017-03-26T09:25:01.441Z,31.91
2017-03-26T09:26:01.454Z,31.87
2017-03-26T09:27:01.465Z,31.86
2017-03-26T09:28:01.549Z,31.8
2017-03-26T09:29:01.582Z,31.19
2017-03-26T09:30:01.648Z,30.89
2017-03-26T09:31:01.661Z,30.78
2017-03-26T09:32:01.725Z,31.07
2017-03-26T09:33:01.729Z,31.47
2017-03-26T09:34:01.781Z,31.93
2017-03-26T09:35:01.809Z,32.05
2017-03-26T09:36:01.912Z,32.34
2017-03-26T09:37:01.961Z,32.68
2017-03-26T09:38:01.968Z,32.75
2017-03-26T09:39:02.030Z,32.79
2017-03-26T09:40:02.080Z,32.59
2017-03-26T09:41:02.125Z,32.62
2017-03-26T09:42:02.125Z,32.49
2017-03-26T09:43:02.191Z,32.2
2017-03-26T09:44:02.227Z,31.87
2017-03-26T09:45:02.291Z,31.8
2017-03-26T09:46:02.353Z,31.77
2017-03-26T09:47:02.422Z,31.81
2017-03-26T09:48:02.424Z,31.97
2017-03-26T09:49:02.520Z,31.77
2017-03-26T09:50:02.533Z,31.62
2017-03-26T09:51:02.566Z,31.68
2017-03-26T09:52:02.605Z,31.68
2017-03-26T09:53:02.651Z,31.81
2017-03-26T09:54:02.689Z,31.94
2017-03-26T09:55:02.746Z,31.86
2017-03-26T09:56:02.791Z,31.91
2017-03-26T09:57:02.855Z,31.9
2017-03-26T09:58:02.879Z,32
2017-03-26T09:59:02.947Z,32.28
2017-03-26T10:00:03.040Z,32.53
2017-03-26T10:01:03.004Z,32.8
2017-03-26T10:02:03.072Z,33.08
2017-03-26T10:03:03.100Z,33.23
2017-03-26T10:04:03.182Z,33.24
2017-03-26T10:05:03.177Z,33.23
2017-03-26T10:06:03.255Z,33.13
2017-03-26T10:07:03.772Z,33.03
2017-03-26T10:08:03.351Z,32.69
2017-03-26T10:09:03.388Z,32.35
2017-03-26T10:10:03.555Z,32.17
2017-03-26T10:11:03.445Z,31.94
2017-03-26T10:12:03.511Z,31.74
2017-03-26T10:13:03.556Z,31.18
2017-03-26T10:14:03.602Z,30.78
2017-03-26T10:15:03.714Z,30.64
2017-03-26T10:16:03.701Z,30.45
2017-03-26T10:17:03.763Z,30.44
2017-03-26T10:18:03.746Z,29.94
2017-03-26T10:19:03.801Z,29.72
2017-03-26T10:20:03.951Z,29.94
2017-03-26T10:21:03.923Z,30.28
2017-03-26T10:22:03.953Z,30.79
2017-03-26T10:23:03.990Z,30.96
2017-03-26T10:24:04.032Z,31.04
2017-03-26T10:25:04.044Z,30.97
2017-03-26T10:26:04.140Z,31.07
2017-03-26T10:27:04.180Z,30.47
2017-03-26T10:28:04.195Z,29.75
2017-03-26T10:29:04.280Z,29.01
2017-03-26T10:30:04.420Z,28.28
2017-03-26T10:31:04.349Z,27.96
2017-03-26T10:32:04.388Z,27.37
2017-03-26T10:33:04.388Z,27.21
2017-03-26T10:34:04.467Z,27.28
2017-03-26T10:35:04.514Z,27.42
2017-03-26T10:36:04.509Z,27.89
2017-03-26T10:37:04.578Z,28.41
2017-03-26T10:38:04.622Z,28.51
2017-03-26T10:39:04.632Z,28.83
2017-03-26T10:40:04.714Z,29.5
2017-03-26T10:41:04.716Z,29.91
2017-03-26T10:42:04.765Z,30.14
2017-03-26T10:43:04.842Z,30.22
2017-03-26T10:44:04.823Z,29.45
2017-03-26T10:45:05.213Z,28.46
2017-03-26T10:46:04.961Z,27.52
2017-03-26T10:47:04.961Z,27.46
2017-03-26T10:48:04.981Z,27.99
2017-03-26T10:49:05.023Z,28.57
2017-03-26T10:50:05.080Z,29.3
2017-03-26T10:51:05.129Z,29.7
2017-03-26T10:52:05.165Z,29.88
2017-03-26T10:53:05.173Z,29.63
2017-03-26T10:54:05.228Z,29.26
2017-03-26T10:55:05.330Z,28.27
2017-03-26T10:56:05.315Z,27.11
2017-03-26T10:57:05.322Z,26.22
2017-03-26T10:58:05.363Z,25.66
2017-03-26T10:59:05.396Z,25.54
2017-03-26T11:00:05.468Z,25.64
2017-03-26T11:01:05.516Z,25.76
2017-03-26T11:02:05.569Z,26.15
2017-03-26T11:03:05.569Z,26.24
2017-03-26T11:04:05.645Z,25.99
2017-03-26T11:05:05.652Z,26.16
2017-03-26T11:06:05.652Z,26.53
2017-03-26T11:07:05.725Z,26.76
2017-03-26T11:08:05.779Z,26.99
2017-03-26T11:09:05.764Z,27.69
2017-03-26T11:10:05.824Z,28.36
2017-03-26T11:11:05.862Z,28.86
2017-03-26T11:12:05.877Z,29.29
2017-03-26T11:13:05.946Z,29.69
2017-03-26T11:14:06.021Z,29.88
2017-03-26T11:15:06.019Z,29.82
2017-03-26T11:16:06.063Z,29.91
2017-03-26T11:17:06.064Z,29.95
2017-03-26T11:18:06.146Z,30.11
2017-03-26T11:19:06.175Z,30.26
2017-03-26T11:20:06.247Z,30.42
2017-03-26T11:21:06.267Z,30.32
2017-03-26T11:22:06.263Z,30.31
2017-03-26T11:23:06.333Z,30.47
2017-03-26T11:24:06.307Z,30.59
2017-03-26T11:25:06.378Z,30.59
2017-03-26T11:26:06.384Z,30.75
2017-03-26T11:27:06.472Z,30.31
2017-03-26T11:28:06.510Z,29.81
2017-03-26T11:29:06.526Z,29.43
2017-03-26T11:30:06.563Z,28.86
2017-03-26T11:31:06.565Z,28.58
2017-03-26T11:32:06.619Z,28.7
2017-03-26T11:33:06.714Z,29.05
2017-03-26T11:34:06.687Z,29.3
2017-03-26T11:35:06.725Z,29.43
2017-03-26T11:36:06.813Z,29.58
2017-03-26T11:37:06.785Z,29.35
2017-03-26T11:38:06.823Z,28.76
2017-03-26T11:39:06.868Z,28.35
2017-03-26T11:40:07.012Z,28.16
2017-03-26T11:41:06.958Z,28.26
2017-03-26T11:42:06.987Z,28.42
2017-03-26T11:43:07.031Z,28.49
2017-03-26T11:44:07.020Z,28.38
2017-03-26T11:45:07.164Z,28.14
2017-03-26T11:46:07.154Z,27.8
2017-03-26T11:47:07.135Z,27.36
2017-03-26T11:48:07.186Z,27.13
2017-03-26T11:49:07.202Z,26.97
2017-03-26T11:50:07.274Z,26.71
2017-03-26T11:51:07.273Z,26.41
2017-03-26T11:52:07.393Z,25.96
2017-03-26T11:53:07.392Z,25.23
2017-03-26T11:54:07.381Z,24.55
2017-03-26T11:55:07.442Z,24.12
2017-03-26T11:56:07.481Z,23.59
2017-03-26T11:57:07.537Z,23.03
2017-03-26T11:58:07.523Z,22.07
2017-03-26T11:59:07.572Z,21.04
2017-03-26T12:00:07.656Z,19.89
2017-03-26T12:01:07.659Z,18.9
2017-03-26T12:02:07.701Z,17.99
2017-03-26T12:03:07.704Z,17.36
2017-03-26T12:04:07.768Z,16.87
2017-03-26T12:05:07.792Z,16.45
2017-03-26T12:06:07.859Z,16.1
2017-03-26T12:07:07.828Z,15.89
2017-03-26T12:08:07.908Z,15.67
2017-03-26T12:09:07.910Z,15.41
2017-03-26T12:10:07.936Z,15.31
2017-03-26T12:11:08.006Z,15.26
2017-03-26T12:12:08.019Z,15.07
2017-03-26T12:13:08.103Z,14.94
2017-03-26T12:14:08.104Z,14.95
2017-03-26T12:15:08.142Z,14.82
2017-03-26T12:16:08.176Z,14.71
2017-03-26T12:17:08.192Z,14.69
2017-03-26T12:18:08.215Z,14.57
2017-03-26T12:19:08.283Z,14.53
2017-03-26T12:20:08.269Z,14.46
2017-03-26T12:21:08.403Z,14.46
2017-03-26T12:22:08.385Z,14.44
2017-03-26T12:23:08.373Z,14.45
2017-03-26T12:24:08.490Z,14.48
2017-03-26T12:25:08.458Z,14.53
2017-03-26T12:26:08.488Z,14.48
2017-03-26T12:27:08.521Z,14.46
2017-03-26T12:28:08.584Z,14.61
2017-03-26T12:29:08.697Z,14.66
2017-03-26T12:30:08.733Z,14.6
2017-03-26T12:31:08.674Z,14.52
2017-03-26T12:32:08.730Z,14.45
2017-03-26T12:33:08.736Z,14.44
2017-03-26T12:34:08.829Z,14.39
2017-03-26T12:35:08.800Z,14.42
2017-03-26T12:36:08.825Z,14.45
2017-03-26T12:37:08.898Z,14.41
2017-03-26T12:38:08.903Z,14.45
2017-03-26T12:39:08.934Z,14.34
2017-03-26T12:40:08.986Z,14.39
2017-03-26T12:41:09.057Z,14.34
2017-03-26T12:42:09.031Z,14.41
2017-03-26T12:43:09.077Z,14.34
2017-03-26T12:44:09.114Z,14.23
2017-03-26T12:45:09.175Z,14.05
2017-03-26T12:46:09.175Z,14.01
2017-03-26T12:47:09.229Z,13.9
2017-03-26T12:48:09.276Z,13.93
2017-03-26T12:49:09.365Z,14.02
2017-03-26T12:50:09.339Z,14.06
2017-03-26T12:51:09.338Z,14.15
2017-03-26T12:52:09.377Z,14.12
2017-03-26T12:53:09.408Z,14.16
2017-03-26T12:54:09.448Z,14.13
2017-03-26T12:55:09.499Z,14.02
2017-03-26T12:56:09.541Z,14.03
2017-03-26T12:57:09.544Z,14.06
2017-03-26T12:58:09.591Z,14.03
2017-03-26T12:59:09.609Z,13.99
2017-03-26T13:00:09.683Z,13.94
2017-03-26T13:01:09.704Z,13.97
2017-03-26T13:02:09.747Z,13.9
2017-03-26T13:03:09.743Z,13.93
2017-03-26T13:04:09.792Z,13.83
2017-03-26T13:05:09.802Z,13.78
2017-03-26T13:06:09.872Z,13.73
2017-03-26T13:07:09.875Z,13.62
2017-03-26T13:08:09.941Z,13.75
2017-03-26T13:09:09.941Z,13.75
2017-03-26T13:10:10.361Z,13.65
2017-03-26T13:11:10.040Z,13.6
2017-03-26T13:12:10.084Z,13.53
2017-03-26T13:13:10.086Z,13.62
2017-03-26T13:14:10.107Z,13.6
2017-03-26T13:15:10.300Z,13.62
2017-03-26T13:16:10.199Z,13.55
2017-03-26T13:17:10.249Z,13.57
2017-03-26T13:18:10.283Z,13.55
2017-03-26T13:19:10.276Z,13.53
2017-03-26T13:20:10.370Z,13.6
2017-03-26T13:21:10.385Z,13.53
2017-03-26T13:22:10.402Z,13.53
2017-03-26T13:23:10.502Z,13.51
2017-03-26T13:24:10.447Z,13.54
2017-03-26T13:25:10.503Z,13.5
2017-03-26T13:26:10.507Z,13.5
2017-03-26T13:27:10.564Z,13.51
2017-03-26T13:28:10.570Z,13.53
2017-03-26T13:29:10.628Z,13.58
2017-03-26T13:30:10.683Z,13.54
2017-03-26T13:31:10.703Z,13.53
2017-03-26T13:32:10.712Z,13.47
2017-03-26T13:33:10.772Z,13.42
2017-03-26T13:34:10.775Z,13.36
2017-03-26T13:35:10.838Z,13.4
2017-03-26T13:36:10.904Z,13.31
2017-03-26T13:37:10.904Z,13.2
2017-03-26T13:38:11.351Z,13.32
2017-03-26T13:39:10.987Z,13.39
2017-03-26T13:40:10.984Z,13.35
2017-03-26T13:41:11.009Z,13.27
2017-03-26T13:42:11.076Z,13.31
2017-03-26T13:43:11.082Z,13.37
2017-03-26T13:44:11.129Z,13.4
2017-03-26T13:45:11.190Z,13.45
2017-03-26T13:46:11.171Z,13.32
2017-03-26T13:47:11.281Z,13.44
2017-03-26T13:48:11.276Z,13.45
2017-03-26T13:49:11.283Z,13.37
2017-03-26T13:50:11.324Z,13.5
2017-03-26T13:51:11.381Z,13.42
2017-03-26T13:52:11.402Z,13.45
2017-03-26T13:53:11.455Z,13.32
2017-03-26T13:54:11.471Z,13.4
2017-03-26T13:55:11.480Z,13.31
2017-03-26T13:56:11.554Z,13.32
2017-03-26T13:57:11.590Z,13.37
2017-03-26T13:58:11.589Z,13.32
2017-03-26T13:59:11.657Z,13.35
2017-03-26T14:00:11.660Z,13.28
2017-03-26T14:01:11.717Z,13.19
2017-03-26T14:02:11.794Z,13.36
2017-03-26T14:03:11.783Z,13.2
2017-03-26T14:04:11.800Z,13.24
2017-03-26T14:05:11.836Z,13.29
2017-03-26T14:06:11.979Z,13.24
2017-03-26T14:07:11.951Z,13.31
2017-03-26T14:08:11.984Z,13.32
2017-03-26T14:09:11.966Z,13.32
2017-03-26T14:10:12.046Z,13.29
2017-03-26T14:11:12.052Z,13.35
2017-03-26T14:12:12.115Z,13.37
2017-03-26T14:13:12.099Z,13.36
2017-03-26T14:14:12.168Z,13.29
2017-03-26T14:15:12.175Z,13.35
2017-03-26T14:16:12.223Z,13.37
2017-03-26T14:17:12.221Z,13.36
2017-03-26T14:18:12.320Z,13.42
2017-03-26T14:19:12.351Z,13.35
2017-03-26T14:20:12.348Z,13.27
2017-03-26T14:21:12.349Z,13.17
2017-03-26T14:22:12.425Z,13.17
2017-03-26T14:23:12.418Z,13.17
2017-03-26T14:24:12.468Z,13.17
2017-03-26T14:25:12.606Z,13.14
2017-03-26T14:26:12.517Z,13.14
2017-03-26T14:27:12.562Z,13.17
2017-03-26T14:28:12.595Z,13.19
2017-03-26T14:29:12.625Z,13.14
2017-03-26T14:30:12.684Z,13.16
2017-03-26T14:31:12.723Z,13.13
2017-03-26T14:32:12.737Z,13.14
2017-03-26T14:33:12.754Z,13.14
2017-03-26T14:34:12.822Z,13.13
2017-03-26T14:35:12.823Z,13.09
2017-03-26T14:36:12.872Z,13.09
2017-03-26T14:37:12.910Z,13.07
2017-03-26T14:38:12.989Z,13.13
2017-03-26T14:39:12.983Z,13.06
2017-03-26T14:40:13.013Z,13.06
2017-03-26T14:41:13.057Z,13.07
2017-03-26T14:42:13.099Z,12.94
2017-03-26T14:43:13.101Z,12.96
2017-03-26T14:44:13.126Z,12.95
2017-03-26T14:45:13.209Z,12.95
2017-03-26T14:46:13.245Z,12.95
2017-03-26T14:47:13.246Z,12.91
2017-03-26T14:48:13.302Z,12.92
2017-03-26T14:49:13.336Z,12.98
2017-03-26T14:50:13.339Z,13.07
2017-03-26T14:51:13.377Z,12.96
2017-03-26T14:52:13.413Z,13.09
2017-03-26T14:53:13.459Z,12.98
2017-03-26T14:54:13.495Z,13.06
2017-03-26T14:55:13.493Z,12.98
2017-03-26T14:56:13.510Z,13.01
2017-03-26T14:57:13.610Z,12.96
2017-03-26T14:58:14.032Z,12.96
2017-03-26T14:59:13.623Z,12.89
2017-03-26T15:00:13.654Z,12.84
2017-03-26T15:01:13.709Z,12.91
2017-03-26T15:02:13.722Z,12.88
2017-03-26T15:03:13.803Z,12.76
2017-03-26T15:04:13.825Z,12.83
2017-03-26T15:05:13.829Z,12.66
2017-03-26T15:06:13.876Z,12.78
2017-03-26T15:07:13.888Z,12.7
2017-03-26T15:08:13.926Z,12.62
2017-03-26T15:09:13.985Z,12.66
2017-03-26T15:10:14.022Z,12.62
2017-03-26T15:11:14.078Z,12.65
2017-03-26T15:12:14.057Z,12.63
2017-03-26T15:13:14.098Z,12.59
2017-03-26T15:14:14.117Z,12.56
2017-03-26T15:15:14.164Z,12.61
2017-03-26T15:16:14.165Z,12.45
2017-03-26T15:17:14.213Z,12.48
2017-03-26T15:18:14.248Z,12.37
2017-03-26T15:19:14.329Z,12.31
2017-03-26T15:20:14.323Z,12.25
2017-03-26T15:21:14.374Z,12.34
2017-03-26T15:22:14.389Z,12.26
2017-03-26T15:23:14.417Z,12.28
2017-03-26T15:24:14.463Z,12.26
2017-03-26T15:25:14.507Z,12.19
2017-03-26T15:26:14.520Z,12.16
2017-03-26T15:27:14.571Z,12.1
2017-03-26T15:28:14.635Z,12.1
2017-03-26T15:29:14.621Z,12.1
2017-03-26T15:30:14.713Z,12.13
2017-03-26T15:31:14.696Z,12.04
2017-03-26T15:32:14.720Z,12.11
2017-03-26T15:33:14.773Z,12.03
2017-03-26T15:34:14.822Z,12.07
2017-03-26T15:35:14.850Z,12.11
2017-03-26T15:36:14.895Z,12.01
2017-03-26T15:37:14.892Z,11.91
2017-03-26T15:38:14.989Z,11.94
2017-03-26T15:39:14.967Z,11.91
2017-03-26T15:40:14.984Z,11.97
2017-03-26T15:41:15.038Z,11.91
2017-03-26T15:42:15.065Z,11.91
2017-03-26T15:43:15.080Z,11.89
2017-03-26T15:44:15.154Z,11.82
2017-03-26T15:45:15.195Z,11.79
2017-03-26T15:46:15.225Z,11.97
2017-03-26T15:47:15.227Z,11.85
2017-03-26T15:48:15.255Z,11.85
2017-03-26T15:49:15.273Z,11.81
2017-03-26T15:50:15.318Z,11.78
2017-03-26T15:51:15.342Z,11.91
2017-03-26T15:52:15.374Z,12
2017-03-26T15:53:15.472Z,11.88
2017-03-26T15:54:15.450Z,11.91
2017-03-26T15:55:15.479Z,11.89
2017-03-26T15:56:15.501Z,11.95
2017-03-26T15:57:15.579Z,12.05
2017-03-26T15:58:15.599Z,12.08
2017-03-26T15:59:15.605Z,12.08
2017-03-26T16:00:15.671Z,12.11
2017-03-26T16:01:15.676Z,12.13
2017-03-26T16:02:15.751Z,12.08
2017-03-26T16:03:15.748Z,12.13
2017-03-26T16:04:15.790Z,12.2
2017-03-26T16:05:15.819Z,12.28
2017-03-26T16:06:15.869Z,12.2
2017-03-26T16:07:15.867Z,12.04
2017-03-26T16:08:15.926Z,12.11
2017-03-26T16:09:15.963Z,12.05
2017-03-26T16:10:15.982Z,12.07
2017-03-26T16:11:16.015Z,11.91
2017-03-26T16:12:16.065Z,11.94
2017-03-26T16:13:16.047Z,11.97
2017-03-26T16:14:16.084Z,11.97
2017-03-26T16:15:16.354Z,11.86
2017-03-26T16:16:16.155Z,11.86
2017-03-26T16:17:16.201Z,11.73
2017-03-26T16:18:16.253Z,11.79
2017-03-26T16:19:16.285Z,11.73
2017-03-26T16:20:16.309Z,11.75
2017-03-26T16:21:16.372Z,11.78
2017-03-26T16:22:16.588Z,11.76
2017-03-26T16:23:16.424Z,11.78
2017-03-26T16:24:16.438Z,11.85
2017-03-26T16:25:16.479Z,11.84
2017-03-26T16:26:16.491Z,11.89
2017-03-26T16:27:16.565Z,11.81
2017-03-26T16:28:16.580Z,11.84
2017-03-26T16:29:17.164Z,11.82
2017-03-26T16:30:16.613Z,11.85
2017-03-26T16:31:16.680Z,11.84
2017-03-26T16:32:16.950Z,11.85
2017-03-26T16:33:16.748Z,11.78
2017-03-26T16:34:16.824Z,11.75
2017-03-26T16:35:17.111Z,11.66
2017-03-26T16:36:16.840Z,11.82
2017-03-26T16:37:16.915Z,11.73
2017-03-26T16:38:16.888Z,11.73
2017-03-26T16:39:16.910Z,11.64
2017-03-26T16:40:17.007Z,11.67
2017-03-26T16:41:17.012Z,11.73
2017-03-26T16:42:17.026Z,11.66
2017-03-26T16:43:17.107Z,11.68
2017-03-26T16:44:17.121Z,11.64
2017-03-26T16:45:17.126Z,11.67
2017-03-26T16:46:17.149Z,11.59
2017-03-26T16:47:17.207Z,11.59
2017-03-26T16:48:17.219Z,11.57
2017-03-26T16:49:17.242Z,11.46
2017-03-26T16:50:17.323Z,11.48
2017-03-26T16:51:17.328Z,11.33
2017-03-26T16:52:17.349Z,11.34
2017-03-26T16:53:17.375Z,11.28
2017-03-26T16:54:17.425Z,11.23
2017-03-26T16:55:17.426Z,11.16
2017-03-26T16:56:17.659Z,11.2
2017-03-26T16:57:17.527Z,11.16
2017-03-26T16:58:17.523Z,11.06
2017-03-26T16:59:17.579Z,11.12
2017-03-26T17:00:17.613Z,11.09
2017-03-26T17:01:17.627Z,10.92